PWSweather.com
Personal Weather Stations
Station Observations
FARMTALK
Wv, Procious, WV 25164

WvProcious, WV 25164

Lat: 38.483056, Lon: -81.159722

Elevation: 784

Station Type: Weatherwise 1090

Latest ConditionsUpdated 9:30:06 PM EST Friday, Feb 23, 2018
Currently Today's Max Today's Min Today's Average
Temperature 55.8°F13.2°C 81.0°F27.2°C 48.0°F8.9°C 59.8°F15.4°C
Dew Point 55.5°F13.1°C 68.5°F20.3°C 47.8°F8.8°C 56.9°F13.8°C
Winds Calm Calm 8.1 mph NE13.0 kmh NE - 0.9 mph 1.4 kmh
Wind Gusts -- 15.9 mph25.6 kmh - -
Humidity 99% 99% 55% 92%
Pressure 30.53 in1033.9 mb 30.71 in1040.0 mb 30.52 in1033.5 mb -
Precipitation - 0.28 in7.1 mm - -
Hour Temp Dew Point Humidity Winds Wind Gusts Pressure Precip Precip Rate Daily Precip Total
09:30 PM 55.8°F13.2°C 55.5°F13.1°C 99% Calm Calm -- 30.53 in1033.9 mb 0.00 in0.0 mm 0.00 in0.0 mm 0.28 in7.1 mm
09:20 PM 55.9°F13.3°C 55.7°F13.2°C 99% Calm Calm -- 30.52 in1033.5 mb 0.00 in0.0 mm 0.00 in0.0 mm 0.28 in7.1 mm
09:10 PM 56.3°F13.5°C 56.0°F13.3°C 99% Calm Calm -- 30.53 in1033.9 mb 0.00 in0.0 mm 0.00 in0.0 mm 0.28 in7.1 mm
09:00 PM 56.7°F13.7°C 56.4°F13.6°C 99% Calm Calm -- 30.54 in1034.2 mb 0.00 in0.0 mm 0.00 in0.0 mm 0.28 in7.1 mm
08:50 PM 56.8°F13.8°C 56.6°F13.7°C 99% Calm Calm -- 30.54 in1034.2 mb 0.00 in0.0 mm 0.00 in0.0 mm 0.28 in7.1 mm
08:40 PM 57.2°F14.0°C 56.9°F13.8°C 99% Calm Calm -- 30.54 in1034.2 mb 0.00 in0.0 mm 0.00 in0.0 mm 0.28 in7.1 mm
08:30 PM 57.4°F14.1°C 57.1°F13.9°C 99% Calm Calm -- 30.54 in1034.2 mb 0.00 in0.0 mm 0.00 in0.0 mm 0.28 in7.1 mm
08:20 PM 57.6°F14.2°C 57.3°F14.1°C 99% Calm Calm -- 30.54 in1034.2 mb 0.00 in0.0 mm 0.00 in0.0 mm 0.28 in7.1 mm
08:10 PM 57.9°F14.4°C 57.7°F14.3°C 99% Calm Calm -- 30.55 in1034.5 mb 0.00 in0.0 mm 0.00 in0.0 mm 0.28 in7.1 mm
08:00 PM 58.1°F14.5°C 57.8°F14.3°C 99% Calm Calm -- 30.55 in1034.5 mb 0.00 in0.0 mm 0.00 in0.0 mm 0.28 in7.1 mm
07:50 PM 58.3°F14.6°C 58.0°F14.4°C 99% Calm Calm -- 30.55 in1034.5 mb 0.00 in0.0 mm 0.00 in0.0 mm 0.28 in7.1 mm
07:40 PM 58.6°F14.8°C 58.4°F14.7°C 99% Calm Calm -- 30.55 in1034.5 mb 0.00 in0.0 mm 0.00 in0.0 mm 0.28 in7.1 mm
07:30 PM 59.0°F15.0°C 58.7°F14.8°C 99% Calm Calm -- 30.55 in1034.5 mb 0.00 in0.0 mm 0.00 in0.0 mm 0.28 in7.1 mm
07:20 PM 59.2°F15.1°C 58.9°F14.9°C 99% Calm Calm -- 30.54 in1034.2 mb 0.00 in0.0 mm 0.00 in0.0 mm 0.28 in7.1 mm
07:10 PM 59.5°F15.3°C 59.3°F15.2°C 99% Calm Calm -- 30.54 in1034.2 mb 0.00 in0.0 mm 0.00 in0.0 mm 0.28 in7.1 mm
07:00 PM 59.7°F15.4°C 59.5°F15.3°C 99% Calm Calm -- 30.53 in1033.9 mb 0.00 in0.0 mm 0.00 in0.0 mm 0.28 in7.1 mm
06:50 PM 60.1°F15.6°C 59.8°F15.4°C 99% Calm Calm -- 30.53 in1033.9 mb 0.00 in0.0 mm 0.00 in0.0 mm 0.28 in7.1 mm
06:40 PM 60.6°F15.9°C 60.4°F15.8°C 99% Calm Calm -- 30.53 in1033.9 mb 0.00 in0.0 mm 0.00 in0.0 mm 0.28 in7.1 mm
06:30 PM 61.3°F16.3°C 61.1°F16.2°C 99% Calm Calm -- 30.53 in1033.9 mb 0.00 in0.0 mm 0.00 in0.0 mm 0.28 in7.1 mm
06:20 PM 62.1°F16.7°C 61.8°F16.6°C 99% Calm Calm -- 30.52 in1033.5 mb 0.00 in0.0 mm 0.00 in0.0 mm 0.28 in7.1 mm
06:10 PM 62.6°F17.0°C 62.3°F16.8°C 99% Calm Calm -- 30.52 in1033.5 mb 0.00 in0.0 mm 0.00 in0.0 mm 0.28 in7.1 mm
06:00 PM 63.1°F17.3°C 62.9°F17.2°C 99% Calm Calm -- 30.52 in1033.5 mb 0.00 in0.0 mm 0.00 in0.0 mm 0.28 in7.1 mm
05:50 PM 63.7°F17.6°C 63.4°F17.4°C 99% Calm Calm -- 30.52 in1033.5 mb 0.00 in0.0 mm 0.00 in0.0 mm 0.28 in7.1 mm
05:40 PM 64.0°F17.8°C 63.8°F17.7°C 99% Calm Calm -- 30.52 in1033.5 mb 0.00 in0.0 mm 0.00 in0.0 mm 0.28 in7.1 mm
05:30 PM 64.0°F17.8°C 63.8°F17.7°C 99% Calm Calm -- 30.52 in1033.5 mb 0.00 in0.0 mm 0.00 in0.0 mm 0.28 in7.1 mm
05:20 PM 64.2°F17.9°C 64.0°F17.8°C 99% 0.4 mph SSW0.6 kmh SSW 1.6 mph2.6 kmh 30.53 in1033.9 mb 0.00 in0.0 mm 0.00 in0.0 mm 0.28 in7.1 mm
05:10 PM 64.9°F18.3°C 64.7°F18.2°C 99% 1.6 mph S2.6 kmh S 1.6 mph2.6 kmh 30.53 in1033.9 mb 0.00 in0.0 mm 0.00 in0.0 mm 0.28 in7.1 mm
05:00 PM 64.9°F18.3°C 64.7°F18.2°C 99% 1.6 mph S2.6 kmh S 1.6 mph2.6 kmh 30.53 in1033.9 mb 0.00 in0.0 mm 0.00 in0.0 mm 0.28 in7.1 mm
04:50 PM 65.3°F18.5°C 65.0°F18.3°C 99% Calm Calm -- 30.54 in1034.2 mb 0.00 in0.0 mm 0.00 in0.0 mm 0.28 in7.1 mm
04:40 PM 65.5°F18.6°C 65.2°F18.4°C 99% 0.4 mph SW0.6 kmh SW 1.6 mph2.6 kmh 30.53 in1033.9 mb 0.00 in0.0 mm 0.00 in0.0 mm 0.28 in7.1 mm
04:30 PM 65.7°F18.7°C 65.1°F18.4°C 98% 0.2 mph SW0.3 kmh SW 1.6 mph2.6 kmh 30.54 in1034.2 mb 0.01 in0.3 mm 0.00 in0.0 mm 0.28 in7.1 mm
04:20 PM 65.7°F18.7°C 65.1°F18.4°C 98% 0.5 mph SW0.8 kmh SW 1.6 mph2.6 kmh 30.54 in1034.2 mb 0.01 in0.3 mm 0.00 in0.0 mm 0.28 in7.1 mm
04:10 PM 65.7°F18.7°C 65.4°F18.6°C 99% 0.3 mph S0.5 kmh S 1.6 mph2.6 kmh 30.54 in1034.2 mb 0.20 in5.1 mm 0.00 in0.0 mm 0.28 in7.1 mm
04:00 PM 65.1°F18.4°C 64.6°F18.1°C 98% 1.4 mph SW2.3 kmh SW 1.6 mph2.6 kmh 30.55 in1034.5 mb 0.21 in5.3 mm 0.00 in0.0 mm 0.28 in7.1 mm
03:50 PM 64.9°F18.3°C 64.7°F18.2°C 99% 2.2 mph W3.5 kmh W 2.2 mph3.5 kmh 30.55 in1034.5 mb 0.22 in5.6 mm 0.00 in0.0 mm 0.28 in7.1 mm
03:40 PM 64.4°F18.0°C 64.1°F17.8°C 99% 2.5 mph SW4.0 kmh SW 3.1 mph5.0 kmh 30.55 in1034.5 mb 0.22 in5.6 mm 0.06 in1.5 mm 0.28 in7.1 mm
03:30 PM 64.2°F17.9°C 63.7°F17.6°C 98% 2.6 mph SSW4.2 kmh SSW 3.1 mph5.0 kmh 30.56 in1034.9 mb 0.21 in5.3 mm 0.00 in0.0 mm 0.27 in6.9 mm
03:20 PM 64.9°F18.3°C 62.9°F17.2°C 93% 8.1 mph NE13.0 kmh NE 15.9 mph25.6 kmh 30.57 in1035.2 mb 0.21 in5.3 mm 0.84 in21.3 mm 0.27 in6.9 mm
03:10 PM 69.6°F20.9°C 68.5°F20.3°C 96% 0.7 mph S1.1 kmh S 6.9 mph11.1 kmh 30.59 in1035.9 mb 0.07 in1.8 mm 0.00 in0.0 mm 0.07 in1.8 mm
03:00 PM 70.3°F21.3°C 67.6°F19.8°C 91% 0.3 mph E0.5 kmh E 1.6 mph2.6 kmh 30.54 in1034.2 mb 0.07 in1.8 mm 0.01 in0.3 mm 0.07 in1.8 mm
02:50 PM 71.4°F21.9°C 67.7°F19.8°C 88% Calm Calm 0.7 mph1.1 kmh 30.54 in1034.2 mb 0.06 in1.5 mm 0.00 in0.0 mm 0.06 in1.5 mm
02:40 PM 71.8°F22.1°C 67.7°F19.8°C 87% 0.1 mph SW0.2 kmh SW 2.2 mph3.5 kmh 30.54 in1034.2 mb 0.06 in1.5 mm 0.00 in0.0 mm 0.06 in1.5 mm
02:30 PM 71.8°F22.1°C 67.1°F19.5°C 85% 4.4 mph NE7.1 kmh NE 6.9 mph11.1 kmh 30.56 in1034.9 mb 0.06 in1.5 mm 0.00 in0.0 mm 0.06 in1.5 mm
02:20 PM 76.1°F24.5°C 66.9°F19.4°C 73% 3.4 mph NNE5.5 kmh NNE 8.3 mph13.4 kmh 30.56 in1034.9 mb 0.06 in1.5 mm 0.36 in9.1 mm 0.06 in1.5 mm
02:10 PM 78.6°F25.9°C 62.6°F17.0°C 58% 7.0 mph NNE11.3 kmh NNE 12.1 mph19.5 kmh 30.55 in1034.5 mb 0.00 in0.0 mm 0.00 in0.0 mm 0.00 in0.0 mm
02:00 PM 81.0°F27.2°C 63.3°F17.4°C 55% 3.1 mph S5.0 kmh S 6.0 mph9.7 kmh 30.57 in1035.2 mb 0.00 in0.0 mm 0.00 in0.0 mm 0.00 in0.0 mm
01:50 PM 79.5°F26.4°C 63.5°F17.5°C 58% 3.2 mph SSE5.1 kmh SSE 4.5 mph7.2 kmh 30.57 in1035.2 mb 0.00 in0.0 mm 0.00 in0.0 mm 0.00 in0.0 mm
01:40 PM 78.8°F26.0°C 63.3°F17.4°C 59% 3.5 mph SW5.6 kmh SW 6.0 mph9.7 kmh 30.57 in1035.2 mb 0.00 in0.0 mm 0.00 in0.0 mm 0.00 in0.0 mm
01:30 PM 78.4°F25.8°C 63.4°F17.4°C 60% 2.8 mph SE4.5 kmh SE 4.5 mph7.2 kmh 30.58 in1035.6 mb 0.00 in0.0 mm 0.00 in0.0 mm 0.00 in0.0 mm
01:20 PM 77.0°F25.0°C 63.0°F17.2°C 62% 3.6 mph WSW5.8 kmh WSW 8.3 mph13.4 kmh 30.59 in1035.9 mb 0.00 in0.0 mm 0.00 in0.0 mm 0.00 in0.0 mm
01:10 PM 76.6°F24.8°C 62.7°F17.1°C 62% 2.9 mph SW4.7 kmh SW 6.9 mph11.1 kmh 30.59 in1035.9 mb 0.00 in0.0 mm 0.00 in0.0 mm 0.00 in0.0 mm
01:00 PM 75.9°F24.4°C 62.5°F16.9°C 63% 3.8 mph S6.1 kmh S 7.6 mph12.2 kmh 30.60 in1036.2 mb 0.00 in0.0 mm 0.00 in0.0 mm 0.00 in0.0 mm
12:50 PM 75.7°F24.3°C 62.7°F17.1°C 64% 2.7 mph S4.3 kmh S 5.4 mph8.7 kmh 30.60 in1036.2 mb 0.00 in0.0 mm 0.00 in0.0 mm 0.00 in0.0 mm
12:40 PM 76.1°F24.5°C 62.6°F17.0°C 63% 2.6 mph N4.2 kmh N 4.5 mph7.2 kmh 30.60 in1036.2 mb 0.00 in0.0 mm 0.00 in0.0 mm 0.00 in0.0 mm
12:30 PM 76.3°F24.6°C 62.8°F17.1°C 63% 4.0 mph N6.4 kmh N 9.8 mph15.8 kmh 30.60 in1036.2 mb 0.00 in0.0 mm 0.00 in0.0 mm 0.00 in0.0 mm
12:20 PM 76.3°F24.6°C 62.8°F17.1°C 63% 5.4 mph SE8.7 kmh SE 13.0 mph20.9 kmh 30.60 in1036.2 mb 0.00 in0.0 mm 0.00 in0.0 mm 0.00 in0.0 mm
12:10 PM 77.0°F25.0°C 62.6°F17.0°C 61% 5.7 mph NE9.2 kmh NE 13.0 mph20.9 kmh 30.61 in1036.6 mb 0.00 in0.0 mm 0.00 in0.0 mm 0.00 in0.0 mm
12:00 PM 77.2°F25.1°C 62.7°F17.1°C 61% 4.8 mph E7.7 kmh E 9.2 mph14.8 kmh 30.61 in1036.6 mb 0.00 in0.0 mm 0.00 in0.0 mm 0.00 in0.0 mm
11:50 AM 78.6°F25.9°C 62.6°F17.0°C 58% 4.4 mph NE7.1 kmh NE 6.9 mph11.1 kmh 30.60 in1036.2 mb 0.00 in0.0 mm 0.00 in0.0 mm 0.00 in0.0 mm
11:40 AM 79.5°F26.4°C 63.0°F17.2°C 57% 4.7 mph SW7.6 kmh SW 6.9 mph11.1 kmh 30.60 in1036.2 mb 0.00 in0.0 mm 0.00 in0.0 mm 0.00 in0.0 mm
11:30 AM 78.3°F25.7°C 63.3°F17.4°C 60% 4.8 mph NE7.7 kmh NE 9.2 mph14.8 kmh 30.61 in1036.6 mb 0.00 in0.0 mm 0.00 in0.0 mm 0.00 in0.0 mm
11:20 AM 78.1°F25.6°C 64.5°F18.1°C 63% 4.2 mph SSW6.8 kmh SSW 6.9 mph11.1 kmh 30.61 in1036.6 mb 0.00 in0.0 mm 0.00 in0.0 mm 0.00 in0.0 mm
11:10 AM 77.0°F25.0°C 64.8°F18.2°C 66% 2.7 mph SW4.3 kmh SW 6.9 mph11.1 kmh 30.61 in1036.6 mb 0.00 in0.0 mm 0.00 in0.0 mm 0.00 in0.0 mm
11:00 AM 77.0°F25.0°C 65.2°F18.4°C 67% 2.9 mph SW4.7 kmh SW 6.0 mph9.7 kmh 30.61 in1036.6 mb 0.00 in0.0 mm 0.00 in0.0 mm 0.00 in0.0 mm
10:50 AM 75.4°F24.1°C 65.0°F18.3°C 70% 2.3 mph NW3.7 kmh NW 3.8 mph6.1 kmh 30.61 in1036.6 mb 0.00 in0.0 mm 0.00 in0.0 mm 0.00 in0.0 mm
10:40 AM 74.5°F23.6°C 65.7°F18.7°C 74% 3.5 mph SW5.6 kmh SW 5.4 mph8.7 kmh 30.61 in1036.6 mb 0.00 in0.0 mm 0.00 in0.0 mm 0.00 in0.0 mm
10:30 AM 70.9°F21.6°C 64.1°F17.8°C 79% 2.5 mph SSW4.0 kmh SSW 3.8 mph6.1 kmh 30.61 in1036.6 mb 0.00 in0.0 mm 0.00 in0.0 mm 0.00 in0.0 mm
10:20 AM 67.6°F19.8°C 64.9°F18.3°C 91% 1.0 mph ESE1.6 kmh ESE 3.1 mph5.0 kmh 30.61 in1036.6 mb 0.00 in0.0 mm 0.00 in0.0 mm 0.00 in0.0 mm
10:10 AM 64.2°F17.9°C 62.2°F16.8°C 93% 0.8 mph N1.3 kmh N 2.2 mph3.5 kmh 30.61 in1036.6 mb 0.00 in0.0 mm 0.00 in0.0 mm 0.00 in0.0 mm
10:00 AM 62.1°F16.7°C 60.3°F15.7°C 94% 0.5 mph E0.8 kmh E 2.2 mph3.5 kmh 30.62 in1036.9 mb 0.00 in0.0 mm 0.00 in0.0 mm 0.00 in0.0 mm
09:50 AM 60.4°F15.8°C 59.3°F15.2°C 96% Calm Calm -- 30.63 in1037.3 mb 0.00 in0.0 mm 0.00 in0.0 mm 0.00 in0.0 mm
09:40 AM 58.6°F14.8°C 58.1°F14.5°C 98% Calm Calm -- 30.63 in1037.3 mb 0.00 in0.0 mm 0.00 in0.0 mm 0.00 in0.0 mm
09:30 AM 57.7°F14.3°C 57.5°F14.2°C 99% Calm Calm -- 30.63 in1037.3 mb 0.00 in0.0 mm 0.00 in0.0 mm 0.00 in0.0 mm
09:20 AM 56.5°F13.6°C 56.2°F13.4°C 99% Calm Calm -- 30.63 in1037.3 mb 0.00 in0.0 mm 0.00 in0.0 mm 0.00 in0.0 mm
09:10 AM 55.2°F12.9°C 55.0°F12.8°C 99% Calm Calm -- 30.63 in1037.3 mb 0.00 in0.0 mm 0.00 in0.0 mm 0.00 in0.0 mm
09:00 AM 54.1°F12.3°C 53.9°F12.2°C 99% Calm Calm -- 30.63 in1037.3 mb 0.00 in0.0 mm 0.00 in0.0 mm 0.00 in0.0 mm
08:50 AM 52.7°F11.5°C 52.4°F11.3°C 99% Calm Calm -- 30.64 in1037.6 mb 0.00 in0.0 mm 0.00 in0.0 mm 0.00 in0.0 mm
08:40 AM 51.8°F11.0°C 51.5°F10.8°C 99% Calm Calm -- 30.64 in1037.6 mb 0.00 in0.0 mm 0.00 in0.0 mm 0.00 in0.0 mm
08:30 AM 51.3°F10.7°C 51.0°F10.6°C 99% Calm Calm -- 30.64 in1037.6 mb 0.00 in0.0 mm 0.00 in0.0 mm 0.00 in0.0 mm
08:20 AM 50.5°F10.3°C 50.3°F10.2°C 99% Calm Calm -- 30.64 in1037.6 mb 0.00 in0.0 mm 0.00 in0.0 mm 0.00 in0.0 mm
08:10 AM 50.2°F10.1°C 49.9°F9.9°C 99% Calm Calm -- 30.64 in1037.6 mb 0.00 in0.0 mm 0.00 in0.0 mm 0.00 in0.0 mm
08:00 AM 49.5°F9.7°C 49.2°F9.6°C 99% Calm Calm -- 30.63 in1037.3 mb 0.00 in0.0 mm 0.00 in0.0 mm 0.00 in0.0 mm
07:50 AM 49.1°F9.5°C 48.8°F9.3°C 99% Calm Calm -- 30.63 in1037.3 mb 0.00 in0.0 mm 0.00 in0.0 mm 0.00 in0.0 mm
07:40 AM 48.7°F9.3°C 48.5°F9.2°C 99% Calm Calm -- 30.64 in1037.6 mb 0.00 in0.0 mm 0.00 in0.0 mm 0.00 in0.0 mm
07:30 AM 48.6°F9.2°C 48.3°F9.1°C 99% Calm Calm -- 30.64 in1037.6 mb 0.00 in0.0 mm 0.00 in0.0 mm 0.00 in0.0 mm
07:20 AM 48.4°F9.1°C 48.1°F8.9°C 99% Calm Calm -- 30.65 in1037.9 mb 0.00 in0.0 mm 0.00 in0.0 mm 0.00 in0.0 mm
07:10 AM 48.2°F9.0°C 47.9°F8.8°C 99% Calm Calm -- 30.64 in1037.6 mb 0.00 in0.0 mm 0.00 in0.0 mm 0.00 in0.0 mm
07:00 AM 48.2°F9.0°C 47.9°F8.8°C 99% Calm Calm -- 30.64 in1037.6 mb 0.00 in0.0 mm 0.00 in0.0 mm 0.00 in0.0 mm
06:50 AM 48.2°F9.0°C 47.9°F8.8°C 99% Calm Calm -- 30.64 in1037.6 mb 0.00 in0.0 mm 0.00 in0.0 mm 0.00 in0.0 mm
06:40 AM 48.0°F8.9°C 47.8°F8.8°C 99% Calm Calm -- 30.64 in1037.6 mb 0.00 in0.0 mm 0.00 in0.0 mm 0.00 in0.0 mm
06:30 AM 48.0°F8.9°C 47.8°F8.8°C 99% Calm Calm -- 30.65 in1037.9 mb 0.00 in0.0 mm 0.00 in0.0 mm 0.00 in0.0 mm
06:20 AM 48.2°F9.0°C 47.9°F8.8°C 99% Calm Calm -- 30.65 in1037.9 mb 0.00 in0.0 mm 0.00 in0.0 mm 0.00 in0.0 mm
06:10 AM 48.2°F9.0°C 47.9°F8.8°C 99% Calm Calm -- 30.65 in1037.9 mb 0.00 in0.0 mm 0.00 in0.0 mm 0.00 in0.0 mm
06:00 AM 48.2°F9.0°C 47.9°F8.8°C 99% Calm Calm -- 30.65 in1037.9 mb 0.00 in0.0 mm 0.00 in0.0 mm 0.00 in0.0 mm
05:50 AM 48.2°F9.0°C 47.9°F8.8°C 99% Calm Calm -- 30.65 in1037.9 mb 0.00 in0.0 mm 0.00 in0.0 mm 0.00 in0.0 mm
05:40 AM 48.4°F9.1°C 48.1°F8.9°C 99% Calm Calm -- 30.65 in1037.9 mb 0.00 in0.0 mm 0.00 in0.0 mm 0.00 in0.0 mm
05:30 AM 48.4°F9.1°C 48.1°F8.9°C 99% Calm Calm -- 30.64 in1037.6 mb 0.00 in0.0 mm 0.00 in0.0 mm 0.00 in0.0 mm
05:20 AM 48.6°F9.2°C 48.3°F9.1°C 99% Calm Calm -- 30.64 in1037.6 mb 0.00 in0.0 mm 0.00 in0.0 mm 0.00 in0.0 mm
05:10 AM 48.7°F9.3°C 48.5°F9.2°C 99% Calm Calm -- 30.64 in1037.6 mb 0.00 in0.0 mm 0.00 in0.0 mm 0.00 in0.0 mm
05:00 AM 48.7°F9.3°C 48.5°F9.2°C 99% Calm Calm -- 30.64 in1037.6 mb 0.00 in0.0 mm 0.00 in0.0 mm 0.00 in0.0 mm
04:50 AM 48.9°F9.4°C 48.7°F9.3°C 99% Calm Calm -- 30.65 in1037.9 mb 0.00 in0.0 mm 0.00 in0.0 mm 0.00 in0.0 mm
04:40 AM 49.3°F9.6°C 49.0°F9.4°C 99% Calm Calm -- 30.64 in1037.6 mb 0.00 in0.0 mm 0.00 in0.0 mm 0.00 in0.0 mm
04:30 AM 49.6°F9.8°C 49.4°F9.7°C 99% Calm Calm -- 30.64 in1037.6 mb 0.00 in0.0 mm 0.00 in0.0 mm 0.00 in0.0 mm
04:20 AM 50.0°F10.0°C 49.7°F9.8°C 99% Calm Calm -- 30.66 in1038.3 mb 0.00 in0.0 mm 0.00 in0.0 mm 0.00 in0.0 mm
04:10 AM 50.0°F10.0°C 49.7°F9.8°C 99% Calm Calm -- 30.66 in1038.3 mb 0.00 in0.0 mm 0.00 in0.0 mm 0.00 in0.0 mm
04:00 AM 50.0°F10.0°C 49.7°F9.8°C 99% Calm Calm -- 30.67 in1038.6 mb 0.00 in0.0 mm 0.00 in0.0 mm 0.00 in0.0 mm
03:50 AM 49.8°F9.9°C 49.6°F9.8°C 99% Calm Calm -- 30.66 in1038.3 mb 0.00 in0.0 mm 0.00 in0.0 mm 0.00 in0.0 mm
03:40 AM 50.0°F10.0°C 49.7°F9.8°C 99% Calm Calm -- 30.66 in1038.3 mb 0.00 in0.0 mm 0.00 in0.0 mm 0.00 in0.0 mm
03:30 AM 50.4°F10.2°C 50.1°F10.1°C 99% Calm Calm -- 30.67 in1038.6 mb 0.00 in0.0 mm 0.00 in0.0 mm 0.00 in0.0 mm
03:20 AM 50.5°F10.3°C 50.3°F10.2°C 99% Calm Calm -- 30.67 in1038.6 mb 0.00 in0.0 mm 0.00 in0.0 mm 0.00 in0.0 mm
03:10 AM 50.5°F10.3°C 50.3°F10.2°C 99% Calm Calm -- 30.67 in1038.6 mb 0.00 in0.0 mm 0.00 in0.0 mm 0.00 in0.0 mm
03:00 AM 50.5°F10.3°C 50.3°F10.2°C 99% Calm Calm -- 30.68 in1038.9 mb 0.00 in0.0 mm 0.00 in0.0 mm 0.00 in0.0 mm
02:50 AM 50.5°F10.3°C 50.3°F10.2°C 99% Calm Calm -- 30.68 in1038.9 mb 0.00 in0.0 mm 0.00 in0.0 mm 0.00 in0.0 mm
02:40 AM 50.7°F10.4°C 50.5°F10.3°C 99% Calm Calm -- 30.70 in1039.6 mb 0.00 in0.0 mm 0.00 in0.0 mm 0.00 in0.0 mm
02:30 AM 50.9°F10.5°C 50.6°F10.3°C 99% Calm Calm -- 30.70 in1039.6 mb 0.00 in0.0 mm 0.00 in0.0 mm 0.00 in0.0 mm
02:20 AM 51.1°F10.6°C 50.8°F10.4°C 99% Calm Calm -- 30.69 in1039.3 mb 0.00 in0.0 mm 0.00 in0.0 mm 0.00 in0.0 mm
02:10 AM 51.3°F10.7°C 51.0°F10.6°C 99% Calm Calm -- 30.70 in1039.6 mb 0.00 in0.0 mm 0.00 in0.0 mm 0.00 in0.0 mm
02:00 AM 51.4°F10.8°C 51.2°F10.7°C 99% Calm Calm -- 30.70 in1039.6 mb 0.00 in0.0 mm 0.00 in0.0 mm 0.00 in0.0 mm
01:50 AM 51.4°F10.8°C 51.2°F10.7°C 99% Calm Calm -- 30.70 in1039.6 mb 0.00 in0.0 mm 0.00 in0.0 mm 0.00 in0.0 mm
01:40 AM 51.4°F10.8°C 51.2°F10.7°C 99% Calm Calm -- 30.70 in1039.6 mb 0.00 in0.0 mm 0.00 in0.0 mm 0.00 in0.0 mm
01:30 AM 51.4°F10.8°C 51.2°F10.7°C 99% Calm Calm -- 30.70 in1039.6 mb 0.00 in0.0 mm 0.00 in0.0 mm 0.00 in0.0 mm
01:20 AM 51.4°F10.8°C 51.2°F10.7°C 99% Calm Calm -- 30.71 in1040.0 mb 0.00 in0.0 mm 0.00 in0.0 mm 0.00 in0.0 mm
01:10 AM 51.4°F10.8°C 51.2°F10.7°C 99% Calm Calm -- 30.71 in1040.0 mb 0.00 in0.0 mm 0.00 in0.0 mm 0.00 in0.0 mm
01:00 AM 51.4°F10.8°C 51.2°F10.7°C 99% Calm Calm -- 30.71 in1040.0 mb 0.00 in0.0 mm 0.00 in0.0 mm 0.00 in0.0 mm
12:50 AM 51.4°F10.8°C 51.2°F10.7°C 99% 0.3 mph S0.5 kmh S 1.6 mph2.6 kmh 30.71 in1040.0 mb 0.00 in0.0 mm 0.00 in0.0 mm 0.00 in0.0 mm
12:40 AM 51.4°F10.8°C 51.2°F10.7°C 99% Calm Calm -- 30.70 in1039.6 mb 0.00 in0.0 mm 0.00 in0.0 mm 0.00 in0.0 mm
12:30 AM 51.4°F10.8°C 51.2°F10.7°C 99% 0.3 mph NE0.5 kmh NE 1.6 mph2.6 kmh 30.71 in1040.0 mb 0.00 in0.0 mm 0.00 in0.0 mm 0.00 in0.0 mm
12:20 AM 51.3°F10.7°C 51.0°F10.6°C 99% 0.4 mph NE0.6 kmh NE 1.6 mph2.6 kmh 30.71 in1040.0 mb 0.00 in0.0 mm 0.00 in0.0 mm 0.00 in0.0 mm
12:10 AM 51.1°F10.6°C 50.8°F10.4°C 99% Calm Calm -- 30.71 in1040.0 mb 0.00 in0.0 mm 0.00 in0.0 mm 0.00 in0.0 mm
12:00 AM 51.1°F10.6°C 50.8°F10.4°C 99% 0.3 mph NE0.5 kmh NE 1.6 mph2.6 kmh 30.71 in1040.0 mb 0.00 in0.0 mm 0.00 in0.0 mm 0.00 in0.0 mm